createdAt,value
2022-11-15T00:00:54.945Z,101064.25
2022-11-15T00:03:27.178Z,101073.59
2022-11-15T00:05:53.939Z,101065.09
2022-11-15T00:08:20.578Z,101076.97
2022-11-15T00:10:56.990Z,101072.72
2022-11-15T00:13:23.421Z,101068.47
2022-11-15T00:15:50.076Z,101065.94
2022-11-15T00:18:17.523Z,101059.13
2022-11-15T00:20:44.036Z,101061.66
2022-11-15T00:23:10.479Z,101059.09
2022-11-15T00:25:36.995Z,101056.53
2022-11-15T00:28:03.556Z,101053.16
2022-11-15T00:30:30.684Z,101050.59
2022-11-15T00:32:57.102Z,101047.19
2022-11-15T00:35:23.634Z,101050.53
2022-11-15T00:37:50.298Z,101046.31
2022-11-15T00:40:16.832Z,101053.94
2022-11-15T00:42:43.283Z,101053.09
2022-11-15T00:45:10.799Z,101058.16
2022-11-15T00:47:37.652Z,101050.50
2022-11-15T00:50:05.129Z,101053.88
2022-11-15T00:52:31.625Z,101050.47
2022-11-15T00:54:57.994Z,101040.28
2022-11-15T00:57:27.578Z,101036.03
2022-11-15T00:59:53.978Z,101030.91
2022-11-15T01:02:20.493Z,101030.88
2022-11-15T01:04:47.056Z,101031.72
2022-11-15T01:07:13.775Z,101018.13
2022-11-15T01:09:40.182Z,101018.94
2022-11-15T01:12:06.847Z,101016.38
2022-11-15T01:14:35.889Z,101031.63
2022-11-15T01:17:04.395Z,101020.56
2022-11-15T01:19:33.416Z,101011.19
2022-11-15T01:21:59.883Z,101011.16
2022-11-15T01:24:26.259Z,101011.13
2022-11-15T01:26:52.767Z,101006.88
2022-11-15T01:29:19.260Z,101014.47
2022-11-15T01:31:45.613Z,101013.59
2022-11-15T01:34:12.167Z,101001.69
2022-11-15T01:36:38.719Z,101003.34
2022-11-15T01:39:05.090Z,100999.94
2022-11-15T01:41:33.774Z,101002.44
2022-11-15T01:44:39.323Z,100999.88
2022-11-15T01:47:28.904Z,100999.84
2022-11-15T01:50:09.070Z,100995.59
2022-11-15T01:52:37.189Z,100993.88
2022-11-15T01:55:08.596Z,100989.56
2022-11-15T01:57:35.466Z,100989.53
2022-11-15T02:00:04.503Z,100977.63
2022-11-15T02:02:31.308Z,100985.25
2022-11-15T02:04:57.781Z,100985.22
2022-11-15T02:07:24.736Z,100991.97
2022-11-15T02:09:52.691Z,100989.38
2022-11-15T02:12:22.220Z,100975.75
2022-11-15T02:14:53.582Z,100970.59
2022-11-15T02:17:34.818Z,100971.41
2022-11-15T02:20:47.348Z,100958.59
2022-11-15T02:23:35.675Z,100950.06
2022-11-15T02:26:23.299Z,100954.25
2022-11-15T02:29:02.719Z,100955.91
2022-11-15T02:31:54.089Z,100951.56
2022-11-15T02:34:40.900Z,100947.28
2022-11-15T02:37:10.358Z,100937.06
2022-11-15T02:39:51.071Z,100937.03
2022-11-15T02:42:44.608Z,100931.00
2022-11-15T02:45:18.605Z,100930.13
2022-11-15T02:47:48.340Z,100923.25
2022-11-15T02:50:19.490Z,100926.59
2022-11-15T02:52:47.222Z,100912.94
2022-11-15T02:57:38.589Z,100913.66
2022-11-15T03:00:18.138Z,100910.22
2022-11-15T03:02:58.502Z,100908.44
2022-11-15T03:05:30.722Z,100894.81
2022-11-15T03:08:10.559Z,100899.00
2022-11-15T03:10:48.004Z,100895.56
2022-11-15T03:13:39.307Z,100899.81
2022-11-15T03:16:13.871Z,100902.28
2022-11-15T03:18:44.388Z,100893.78
2022-11-15T03:21:13.013Z,100891.16
2022-11-15T03:23:41.188Z,100905.53
2022-11-15T03:26:11.600Z,100906.31
2022-11-15T03:28:48.208Z,100911.41
2022-11-15T03:31:36.168Z,100917.28
2022-11-15T03:34:05.971Z,100912.16
2022-11-15T03:36:35.429Z,100910.44
2022-11-15T03:39:05.973Z,100909.50
2022-11-15T03:41:41.338Z,100904.28
2022-11-15T03:44:35.068Z,100912.69
2022-11-15T03:47:10.538Z,100910.16
2022-11-15T03:49:43.192Z,100907.56
2022-11-15T03:52:11.435Z,100914.28
2022-11-15T03:54:38.167Z,100908.22
2022-11-15T03:57:04.783Z,100910.69
2022-11-15T03:59:31.185Z,100906.34
2022-11-15T04:01:57.748Z,100897.75
2022-11-15T04:04:24.335Z,100896.00
2022-11-15T04:06:50.991Z,100901.06
2022-11-15T04:09:17.376Z,100904.34
2022-11-15T04:11:43.752Z,100900.91
2022-11-15T04:14:11.945Z,100895.72
2022-11-15T04:16:43.507Z,100893.13
2022-11-15T04:19:29.000Z,100893.88
2022-11-15T04:22:13.800Z,100895.53
2022-11-15T04:24:40.317Z,100887.81
2022-11-15T04:27:06.851Z,100887.81
2022-11-15T04:29:35.938Z,100883.50
2022-11-15T04:32:07.713Z,100886.00
2022-11-15T04:34:34.322Z,100885.91
2022-11-15T04:37:13.079Z,100889.25
2022-11-15T04:39:44.091Z,100893.50
2022-11-15T04:42:11.169Z,100882.47
2022-11-15T04:44:40.050Z,100879.88
2022-11-15T04:47:06.875Z,100879.91
2022-11-15T04:49:33.327Z,100879.03
2022-11-15T04:51:59.770Z,100879.88
2022-11-15T04:54:26.256Z,100877.25
2022-11-15T04:56:52.904Z,100879.78
2022-11-15T04:59:19.313Z,100878.00
2022-11-15T05:01:45.908Z,100872.94
2022-11-15T05:04:21.515Z,100884.81
2022-11-15T05:06:52.443Z,100878.84
2022-11-15T05:09:20.367Z,100883.06
2022-11-15T05:11:47.719Z,100885.59
2022-11-15T05:14:14.490Z,100888.97
2022-11-15T05:16:41.439Z,100889.78
2022-11-15T05:19:08.286Z,100897.44
2022-11-15T05:21:35.107Z,100895.75
2022-11-15T05:24:02.216Z,100897.44
2022-11-15T05:26:29.091Z,100900.00
2022-11-15T05:28:57.480Z,100894.91
2022-11-15T05:31:24.520Z,100895.75
2022-11-15T05:33:52.612Z,100898.31
2022-11-15T05:36:41.725Z,100893.13
2022-11-15T05:39:09.451Z,100894.81
2022-11-15T05:41:49.873Z,100899.84
2022-11-15T05:44:20.322Z,100898.97
2022-11-15T05:46:48.276Z,100895.50
2022-11-15T05:49:17.903Z,100901.38
2022-11-15T05:51:45.802Z,100903.03
2022-11-15T05:54:12.735Z,100911.44
2022-11-15T05:56:39.819Z,100917.41
2022-11-15T05:59:08.422Z,100909.72
2022-11-15T06:01:35.136Z,100913.81
2022-11-15T06:04:02.736Z,100912.09
2022-11-15T06:06:29.980Z,100905.25
2022-11-15T06:08:56.471Z,100911.22
2022-11-15T06:11:22.798Z,100905.16
2022-11-15T06:13:49.168Z,100905.06
2022-11-15T06:16:15.530Z,100912.59
2022-11-15T06:18:41.983Z,100918.44
2022-11-15T06:21:08.303Z,100911.53
2022-11-15T06:23:35.720Z,100920.09
2022-11-15T06:26:03.957Z,100923.50
2022-11-15T06:28:33.917Z,100916.66
2022-11-15T06:31:09.344Z,100928.56
2022-11-15T06:33:35.944Z,100926.81
2022-11-15T06:36:16.071Z,100925.88
2022-11-15T06:38:46.645Z,100928.38
2022-11-15T06:41:14.417Z,100922.41
2022-11-15T06:43:41.785Z,100921.53
2022-11-15T06:46:08.284Z,100919.03
2022-11-15T06:48:35.111Z,100926.75
2022-11-15T06:51:03.078Z,100929.25
2022-11-15T06:53:31.104Z,100926.78
2022-11-15T06:56:02.656Z,100938.72
2022-11-15T06:58:29.402Z,100940.34
2022-11-15T07:01:01.457Z,100945.44
2022-11-15T07:03:28.076Z,100945.47
2022-11-15T07:05:56.625Z,100949.69
2022-11-15T07:08:24.458Z,100948.81
2022-11-15T07:10:51.581Z,100954.75
2022-11-15T07:13:18.158Z,100947.88
2022-11-15T07:15:44.777Z,100950.44
2022-11-15T07:18:11.272Z,100955.53
2022-11-15T07:20:37.723Z,100951.22
2022-11-15T07:23:05.648Z,100961.44
2022-11-15T07:25:32.257Z,100964.03
2022-11-15T07:28:00.102Z,100959.72
2022-11-15T07:30:27.991Z,100958.91
2022-11-15T07:32:55.984Z,100946.94
2022-11-15T07:35:22.639Z,100960.56
2022-11-15T07:38:03.193Z,100961.38
2022-11-15T07:40:32.672Z,100955.38
2022-11-15T07:43:04.481Z,100960.44
2022-11-15T07:45:31.010Z,100956.13
2022-11-15T07:47:57.510Z,100951.03
2022-11-15T07:50:24.986Z,100954.47
2022-11-15T07:52:56.414Z,100945.00
2022-11-15T07:55:28.172Z,100952.69
2022-11-15T07:58:01.257Z,100942.50
2022-11-15T08:00:27.659Z,100942.50
2022-11-15T08:02:54.101Z,100950.16
2022-11-15T08:05:20.492Z,100946.75
2022-11-15T08:07:47.058Z,100942.41
2022-11-15T08:10:14.851Z,100943.22
2022-11-15T08:12:41.224Z,100936.34
2022-11-15T08:15:07.842Z,100932.84
2022-11-15T08:17:34.888Z,100925.16
2022-11-15T08:20:01.284Z,100936.22
2022-11-15T08:22:27.918Z,100941.31
2022-11-15T08:24:54.240Z,100942.13
2022-11-15T08:27:20.860Z,100946.25
2022-11-15T08:29:49.310Z,100944.47
2022-11-15T08:32:15.662Z,100935.88
2022-11-15T08:34:42.059Z,100931.59
2022-11-15T08:37:09.038Z,100934.94
2022-11-15T08:39:35.484Z,100927.25
2022-11-15T08:42:01.891Z,100922.13
2022-11-15T08:44:28.269Z,100916.09
2022-11-15T08:46:54.752Z,100913.53
2022-11-15T08:49:21.143Z,100907.47
2022-11-15T08:51:47.612Z,100904.91
2022-11-15T08:54:14.036Z,100904.00
2022-11-15T08:56:40.492Z,100908.19
2022-11-15T08:59:06.992Z,100906.41
2022-11-15T09:01:33.600Z,100912.22
2022-11-15T09:04:00.102Z,100899.31
2022-11-15T09:06:26.592Z,100905.97
2022-11-15T09:08:53.187Z,100900.75
2022-11-15T09:11:22.241Z,100905.66
2022-11-15T09:13:48.659Z,100910.56
2022-11-15T09:16:16.152Z,100902.50
2022-11-15T09:18:42.690Z,100894.53
2022-11-15T09:21:09.848Z,100889.06
2022-11-15T09:23:36.522Z,100898.38
2022-11-15T09:26:05.282Z,100889.06
2022-11-15T09:28:32.606Z,100898.50
2022-11-15T09:31:03.920Z,100898.41
2022-11-15T09:33:31.138Z,100894.91
2022-11-15T09:36:03.580Z,100894.19
2022-11-15T09:38:30.550Z,100886.50
2022-11-15T09:41:12.538Z,100885.63
2022-11-15T09:44:17.996Z,100886.84
2022-11-15T09:47:21.825Z,100884.41
2022-11-15T09:49:57.862Z,100884.25
2022-11-15T09:52:24.462Z,100883.31
2022-11-15T09:54:54.911Z,100864.44
2022-11-15T09:57:33.168Z,100879.59
2022-11-15T10:00:46.036Z,100881.91
2022-11-15T10:03:18.976Z,100881.56
2022-11-15T10:05:48.209Z,100870.31
2022-11-15T10:08:25.676Z,100868.44
2022-11-15T10:13:53.229Z,100866.75
2022-11-15T10:16:34.672Z,100860.56
2022-11-15T10:19:36.822Z,100865.69
2022-11-15T10:22:14.943Z,100856.44
2022-11-15T10:24:44.306Z,100857.41
2022-11-15T10:27:16.512Z,100859.13
2022-11-15T10:29:51.232Z,100859.75
2022-11-15T10:32:20.718Z,100846.88
2022-11-15T10:34:49.047Z,100849.50
2022-11-15T10:37:15.736Z,100840.34
2022-11-15T10:39:42.160Z,100839.47
2022-11-15T10:42:29.757Z,100836.59
2022-11-15T10:44:56.358Z,100831.63
2022-11-15T10:47:36.067Z,100828.28
2022-11-15T10:50:25.867Z,100826.69
2022-11-15T10:52:52.487Z,100819.72
2022-11-15T10:55:18.811Z,100809.09
2022-11-15T10:57:53.112Z,100814.25
2022-11-15T11:00:19.701Z,100802.03
2022-11-15T11:02:57.972Z,100804.28
2022-11-15T11:05:41.369Z,100796.38
2022-11-15T11:08:12.074Z,100796.75
2022-11-15T11:11:00.235Z,100790.59
2022-11-15T11:13:40.141Z,100795.31
2022-11-15T11:16:15.768Z,100800.69
2022-11-15T11:18:51.165Z,100791.09
2022-11-15T11:21:39.450Z,100787.06
2022-11-15T11:24:13.452Z,100786.84
2022-11-15T11:27:19.636Z,100787.84
2022-11-15T11:30:03.434Z,100780.41
2022-11-15T11:32:41.253Z,100783.34
2022-11-15T11:35:29.811Z,100784.50
2022-11-15T11:38:02.196Z,100782.13
2022-11-15T11:40:38.085Z,100776.97
2022-11-15T11:43:19.219Z,100777.81
2022-11-15T11:46:10.900Z,100775.09
2022-11-15T11:48:52.731Z,100768.03
2022-11-15T11:51:25.664Z,100764.22
2022-11-15T11:53:55.009Z,100762.88
2022-11-15T11:56:29.407Z,100753.97
2022-11-15T11:59:03.255Z,100748.38
2022-11-15T12:01:42.032Z,100736.81
2022-11-15T12:04:25.780Z,100735.72
2022-11-15T12:07:04.482Z,100719.22
2022-11-15T12:09:44.257Z,100721.69
2022-11-15T12:12:19.413Z,100720.69
2022-11-15T12:14:57.205Z,100720.78
2022-11-15T12:17:33.161Z,100714.28
2022-11-15T12:20:02.490Z,100712.03
2022-11-15T12:22:41.530Z,100701.75
2022-11-15T12:25:07.967Z,100706.00
2022-11-15T12:27:46.046Z,100692.25
2022-11-15T12:30:19.201Z,100683.56
2022-11-15T12:33:00.356Z,100674.91
2022-11-15T12:35:43.642Z,100682.63
2022-11-15T12:38:13.888Z,100678.03
2022-11-15T12:41:48.671Z,100671.88
2022-11-15T12:45:11.491Z,100662.25
2022-11-15T13:04:51.151Z,100631.28
2022-11-15T13:07:49.038Z,100621.97
2022-11-15T13:13:46.403Z,100604.06
2022-11-15T13:16:20.979Z,100612.91
2022-11-15T13:19:02.985Z,100611.38
2022-11-15T13:21:48.237Z,100603.81
2022-11-15T13:24:17.754Z,100597.13
2022-11-15T13:37:20.862Z,100585.06
2022-11-15T13:39:48.253Z,100581.72
2022-11-15T13:42:21.882Z,100584.44
2022-11-15T13:45:04.649Z,100570.00
2022-11-15T13:47:32.625Z,100567.66
2022-11-15T13:50:00.031Z,100564.44
2022-11-15T13:52:36.889Z,100560.25
2022-11-15T13:55:17.564Z,100558.69
2022-11-15T13:57:54.454Z,100559.66
2022-11-15T14:00:44.410Z,100550.44
2022-11-15T14:03:19.528Z,100547.88
2022-11-15T14:06:13.132Z,100547.03
2022-11-15T14:08:41.294Z,100544.53
2022-11-15T14:11:19.041Z,100545.50
2022-11-15T14:14:10.472Z,100542.19
2022-11-15T14:16:39.562Z,100543.34
2022-11-15T14:19:07.789Z,100532.44
2022-11-15T14:21:34.605Z,100529.06
2022-11-15T14:24:21.554Z,100524.81
2022-11-15T14:26:49.543Z,100517.94
2022-11-15T14:29:31.223Z,100516.19
2022-11-15T14:32:15.471Z,100511.13
2022-11-15T14:34:42.207Z,100512.81
2022-11-15T14:37:22.261Z,100506.78
2022-11-15T14:39:49.297Z,100500.81
2022-11-15T14:42:15.813Z,100500.81
2022-11-15T14:44:46.000Z,100497.41
2022-11-15T14:47:13.029Z,100488.91
2022-11-15T14:49:39.518Z,100487.09
2022-11-15T14:52:34.221Z,100481.09
2022-11-15T14:55:03.348Z,100469.16
2022-11-15T14:57:30.896Z,100468.34
2022-11-15T14:59:57.777Z,100467.41
2022-11-15T15:02:26.505Z,100457.16
2022-11-15T15:04:53.701Z,100447.81
2022-11-15T15:07:20.962Z,100449.59
2022-11-15T15:09:47.881Z,100441.91
2022-11-15T15:12:22.937Z,100432.53
2022-11-15T15:14:51.025Z,100443.72
2022-11-15T15:17:18.431Z,100440.28
2022-11-15T15:19:45.031Z,100434.41
2022-11-15T15:22:17.970Z,100420.81
2022-11-15T15:24:45.571Z,100419.97
2022-11-15T15:27:13.048Z,100414.00
2022-11-15T15:29:39.981Z,100407.22
2022-11-15T15:32:06.879Z,100409.00
2022-11-15T15:34:33.605Z,100405.66
2022-11-15T15:37:23.627Z,100393.69
2022-11-15T15:39:54.382Z,100387.78
2022-11-15T15:42:23.501Z,100387.84
2022-11-15T15:44:51.088Z,100388.66
2022-11-15T15:47:26.535Z,100384.50
2022-11-15T15:49:52.909Z,100381.94
2022-11-15T15:52:20.266Z,100382.78
2022-11-15T15:54:46.596Z,100368.31
2022-11-15T15:57:14.925Z,100367.47
2022-11-15T15:59:41.589Z,100369.13
2022-11-15T16:02:12.553Z,100368.31
2022-11-15T16:04:39.068Z,100362.28
2022-11-15T16:07:05.765Z,100354.59
2022-11-15T16:09:50.915Z,100351.16
2022-11-15T16:12:17.582Z,100355.41
2022-11-15T16:14:43.959Z,100355.41
2022-11-15T16:17:21.168Z,100363.09
2022-11-15T16:19:47.908Z,100350.34
2022-11-15T16:22:14.472Z,100356.44
2022-11-15T16:24:40.896Z,100353.13
2022-11-15T16:27:15.078Z,100354.84
2022-11-15T16:29:41.428Z,100348.00
2022-11-15T16:32:07.858Z,100342.03
2022-11-15T16:34:39.916Z,100346.19
2022-11-15T16:37:22.143Z,100338.34
2022-11-15T16:39:48.484Z,100338.34
2022-11-15T16:42:14.810Z,100342.50
2022-11-15T16:44:41.337Z,100351.00
2022-11-15T16:47:19.772Z,100348.53
2022-11-15T16:49:46.820Z,100357.03
2022-11-15T16:52:15.505Z,100354.34
2022-11-15T16:54:45.272Z,100350.06
2022-11-15T16:57:12.086Z,100363.66
2022-11-15T16:59:38.683Z,100355.84
2022-11-15T17:02:11.698Z,100356.59
2022-11-15T17:04:38.128Z,100359.16
2022-11-15T17:07:04.605Z,100366.91
2022-11-15T17:09:31.295Z,100352.91
2022-11-15T17:11:57.742Z,100355.38
2022-11-15T17:14:26.427Z,100347.53
2022-11-15T17:16:54.448Z,100348.91
2022-11-15T17:19:21.769Z,100331.69
2022-11-15T17:21:51.672Z,100330.81
2022-11-15T17:24:20.715Z,100340.44
2022-11-15T17:26:47.272Z,100343.16
2022-11-15T17:29:13.637Z,100343.34
2022-11-15T17:31:39.981Z,100340.22
2022-11-15T17:34:07.113Z,100336.22
2022-11-15T17:36:34.603Z,100330.44
2022-11-15T17:39:01.055Z,100334.91
2022-11-15T17:41:29.029Z,100335.88
2022-11-15T17:43:59.948Z,100330.88
2022-11-15T17:46:28.060Z,100330.16
2022-11-15T17:48:55.537Z,100331.19
2022-11-15T17:51:23.884Z,100326.19
2022-11-15T17:53:51.371Z,100322.91
2022-11-15T17:56:20.175Z,100326.44
2022-11-15T17:58:49.593Z,100331.69
2022-11-15T18:01:30.773Z,100325.84
2022-11-15T18:04:00.403Z,100318.34
2022-11-15T18:06:30.314Z,100318.38
2022-11-15T18:08:57.114Z,100314.22
2022-11-15T18:11:41.277Z,100316.16
2022-11-15T18:14:13.952Z,100317.94
2022-11-15T18:16:40.916Z,100316.25
2022-11-15T18:19:13.997Z,100312.94
2022-11-15T18:21:57.815Z,100317.28
2022-11-15T18:24:33.445Z,100301.19
2022-11-15T18:27:01.449Z,100301.25
2022-11-15T18:29:28.488Z,100299.56
2022-11-15T18:31:55.727Z,100300.50
2022-11-15T18:34:28.714Z,100302.19
2022-11-15T18:36:55.142Z,100297.13
2022-11-15T18:39:21.501Z,100302.31
2022-11-15T18:41:48.805Z,100292.09
2022-11-15T18:44:15.773Z,100299.75
2022-11-15T18:46:44.887Z,100293.81
2022-11-15T18:49:13.094Z,100292.97
2022-11-15T18:51:41.688Z,100285.34
2022-11-15T18:54:10.612Z,100282.84
2022-11-15T18:56:37.676Z,100281.13
2022-11-15T18:59:08.256Z,100277.75
2022-11-15T19:01:37.019Z,100276.06
2022-11-15T19:04:20.503Z,100275.19
2022-11-15T19:06:48.706Z,100270.06
2022-11-15T19:09:18.697Z,100277.75
2022-11-15T19:11:46.526Z,100274.31
2022-11-15T19:14:15.604Z,100270.06
2022-11-15T19:16:52.278Z,100264.06
2022-11-15T19:19:21.760Z,100269.22
2022-11-15T19:21:48.535Z,100264.94
2022-11-15T19:24:15.330Z,100269.16
2022-11-15T19:26:42.483Z,100268.25
2022-11-15T19:29:13.837Z,100272.50
2022-11-15T19:31:41.246Z,100270.78
2022-11-15T19:34:08.033Z,100271.66
2022-11-15T19:36:42.989Z,100269.88
2022-11-15T19:39:12.934Z,100268.09
2022-11-15T19:41:42.150Z,100263.84
2022-11-15T19:44:09.442Z,100262.97
2022-11-15T19:46:37.515Z,100266.34
2022-11-15T19:49:04.772Z,100257.00
2022-11-15T19:51:31.247Z,100261.28
2022-11-15T19:54:06.299Z,100261.22
2022-11-15T19:56:42.097Z,100255.28
2022-11-15T19:59:11.381Z,100254.41
2022-11-15T20:01:39.144Z,100252.66
2022-11-15T20:04:07.576Z,100249.22
2022-11-15T20:06:37.063Z,100254.25
2022-11-15T20:09:04.202Z,100250.81
2022-11-15T20:11:30.615Z,100250.81
2022-11-15T20:14:06.899Z,100246.44
2022-11-15T20:16:33.603Z,100252.50
2022-11-15T20:19:00.148Z,100239.69
2022-11-15T20:21:26.575Z,100222.66
2022-11-15T20:23:53.023Z,100226.81
2022-11-15T20:26:21.107Z,100227.56
2022-11-15T20:28:48.275Z,100220.78
2022-11-15T20:31:15.816Z,100218.19
2022-11-15T20:33:43.247Z,100216.50
2022-11-15T20:36:11.993Z,100222.44
2022-11-15T20:38:38.823Z,100217.31
2022-11-15T20:41:05.988Z,100220.75
2022-11-15T20:43:32.372Z,100215.63
2022-11-15T20:45:58.772Z,100219.88
2022-11-15T20:48:25.208Z,100211.31
2022-11-15T20:50:51.673Z,100213.81
2022-11-15T20:53:20.028Z,100202.75
2022-11-15T20:55:49.513Z,100209.53
2022-11-15T20:58:17.185Z,100207.72
2022-11-15T21:00:45.677Z,100201.72
2022-11-15T21:03:14.182Z,100197.50
2022-11-15T21:05:42.761Z,100199.09
2022-11-15T21:08:10.849Z,100197.34
2022-11-15T21:10:56.456Z,100192.22
2022-11-15T21:13:22.891Z,100193.16
2022-11-15T21:15:49.746Z,100191.41
2022-11-15T21:18:16.497Z,100193.00
2022-11-15T21:20:43.286Z,100191.28
2022-11-15T21:23:11.453Z,100185.25
2022-11-15T21:25:37.914Z,100186.94
2022-11-15T21:28:07.450Z,100183.56
2022-11-15T21:30:33.796Z,100166.44
2022-11-15T21:33:00.175Z,100179.19
2022-11-15T21:35:26.587Z,100170.69
2022-11-15T21:37:56.762Z,100174.06
2022-11-15T21:40:24.505Z,100173.16
2022-11-15T21:42:51.037Z,100163.69
2022-11-15T21:45:17.433Z,100169.66
2022-11-15T21:47:46.400Z,100179.00
2022-11-15T21:50:13.200Z,100158.44
2022-11-15T21:52:40.655Z,100165.28
2022-11-15T21:55:08.023Z,100161.81
2022-11-15T21:57:34.397Z,100154.13
2022-11-15T22:00:19.372Z,100161.75
2022-11-15T22:02:45.725Z,100146.38
2022-11-15T22:05:12.138Z,100142.94
2022-11-15T22:07:38.610Z,100147.09
2022-11-15T22:10:05.600Z,100142.84
2022-11-15T22:12:32.006Z,100149.66
2022-11-15T22:14:58.390Z,100137.72
2022-11-15T22:17:44.840Z,100137.81
2022-11-15T22:20:42.489Z,100133.53
2022-11-15T22:22:59.518Z,100136.03
2022-11-15T22:25:26.473Z,100130.06
2022-11-15T22:27:53.519Z,100131.72
2022-11-15T22:30:20.500Z,100129.22
2022-11-15T22:32:46.934Z,100124.09
2022-11-15T22:35:13.856Z,100121.47
2022-11-15T22:37:40.420Z,100118.91
2022-11-15T22:40:07.342Z,100120.66
2022-11-15T22:42:34.564Z,100111.22
2022-11-15T22:45:00.895Z,100108.66
2022-11-15T22:47:27.273Z,100104.38
2022-11-15T22:49:53.603Z,100104.38
2022-11-15T22:52:20.008Z,100105.22
2022-11-15T22:54:46.468Z,100106.03
2022-11-15T22:57:12.882Z,100095.78
2022-11-15T22:59:39.249Z,100094.88
2022-11-15T23:02:07.207Z,100093.22
2022-11-15T23:04:33.685Z,100093.16
2022-11-15T23:07:00.102Z,100090.59
2022-11-15T23:09:26.617Z,100088.94
2022-11-15T23:12:11.620Z,100076.94
2022-11-15T23:14:38.073Z,100078.63
2022-11-15T23:17:04.522Z,100076.88
2022-11-15T23:19:30.862Z,100073.44
2022-11-15T23:22:15.874Z,100074.31
2022-11-15T23:24:42.251Z,100066.63
2022-11-15T23:27:08.656Z,100070.03
2022-11-15T23:29:56.699Z,100076.88
2022-11-15T23:32:41.728Z,100067.53
2022-11-15T23:35:08.293Z,100068.38
2022-11-15T23:37:34.822Z,100068.38
2022-11-15T23:40:01.208Z,100063.19
2022-11-15T23:42:27.596Z,100060.63
2022-11-15T23:44:53.955Z,100063.97
2022-11-15T23:47:20.360Z,100054.53
2022-11-15T23:49:46.922Z,100049.41
2022-11-15T23:52:15.355Z,100057.91
2022-11-15T23:54:42.032Z,100051.88
2022-11-15T23:57:11.839Z,100047.66
2022-11-15T23:59:45.543Z,100057.91
